.
WxDataArchive / Data Records for 2007-05-19
2007-05-18 May 2007 2007-05-20

Data Records for Saturday, 19 May 2007

Time	Temp	Chill	HIndex	Humid	Dewpt	 Wind 	HiWind	WindDir	Rain 	Barom 
-----	----	-----	------	-----	-----	------	------	-------	-----	----- 
00:00	45.2	45.2	45.2	74	37.4	0	0	---	0.00	30.166 
00:05	45.1	45.1	45.1	75	37.7	0	0	---	0.00	30.166 
00:10	45.1	45.1	45.1	75	37.7	0	0	---	0.00	30.165 
00:15	45.2	45.2	45.2	77	38.4	0	0	---	0.00	30.165 
00:20	45.2	45.2	45.2	77	38.4	0	0	---	0.00	30.164 
00:25	45.2	45.2	45.2	77	38.4	0	0	---	0.00	30.163 
00:30	45.2	45.2	45.2	77	38.4	0	0	---	0.00	30.162 
00:35	45.2	45.2	45.2	77	38.4	0	0	---	0.00	30.162 
00:40	45.1	45.1	45.1	77	38.3	0	0	---	0.00	30.161 
00:45	45.1	45.1	45.1	76	38.0	0	0	---	0.00	30.161 
00:50	45.1	45.1	45.1	76	38.0	0	0	---	0.00	30.159 
00:55	45.1	45.1	45.1	76	38.0	0	0	---	0.00	30.156 
01:00	44.9	44.9	44.9	76	37.8	0	0	---	0.00	30.156 
01:05	44.8	44.8	44.8	76	37.7	0	0	---	0.00	30.153 
01:10	44.6	44.6	44.6	75	37.2	0	0	---	0.00	30.150 
01:15	44.5	44.5	44.5	76	37.4	0	0	---	0.00	30.151 
01:20	44.6	44.6	44.6	77	37.8	0	0	---	0.00	30.151 
01:25	44.6	44.6	44.6	77	37.8	0	0	---	0.00	30.149 
01:30	44.8	44.8	44.8	76	37.7	0	0	---	0.00	30.148 
01:35	44.8	44.8	44.8	76	37.7	0	0	---	0.00	30.147 
01:40	44.9	44.9	44.9	77	38.1	0	0	---	0.00	30.145 
01:45	44.8	44.8	44.8	76	37.7	0	0	---	0.00	30.145 
01:50	44.8	44.8	44.8	76	37.7	0	0	---	0.00	30.145 
01:55	44.8	44.8	44.8	77	38.0	0	0	---	0.00	30.146 
02:00	44.6	44.6	44.6	76	37.5	0	0	---	0.00	30.145 
02:05	44.8	44.8	44.8	76	37.7	0	0	---	0.00	30.143 
02:10	44.9	44.9	44.9	75	37.5	0	0	---	0.00	30.143 
02:15	44.9	44.9	44.9	74	37.1	0	0	---	0.00	30.142 
02:20	44.9	44.9	44.9	74	37.1	0	0	---	0.00	30.143 
02:25	45.1	45.1	45.1	73	37.0	0	0	---	0.00	30.143 
02:30	45.5	45.5	45.5	69	35.9	0	1	202	0.00	30.143 
02:35	46.2	46.2	46.2	65	35.1	0	0	---	0.00	30.143 
02:40	46.8	46.8	46.8	65	35.7	0	0	---	0.00	30.139 
02:45	47.3	47.3	47.3	65	36.1	0	0	---	0.00	30.139 
02:50	47.6	47.6	47.6	65	36.4	0	0	---	0.00	30.137 
02:55	47.9	47.9	47.9	66	37.1	0	0	---	0.00	30.137 
03:00	48.3	48.3	48.3	61	35.5	0	1	202	0.00	30.140 
03:05	48.8	48.8	48.8	59	35.1	0	1	202	0.00	30.138 
03:10	49.4	49.4	49.4	59	35.7	0	1	202	0.00	30.139 
03:15	49.9	49.9	49.9	58	35.7	0	1	202	0.00	30.137 
03:20	50.2	50.2	50.2	56	35.1	0	0	---	0.00	30.138 
03:25	50.5	50.5	50.5	54	34.5	0	0	---	0.00	30.137 
03:30	50.7	50.7	50.7	54	34.7	0	0	---	0.00	30.136 
03:35	50.7	50.7	50.7	54	34.7	0	1	202	0.00	30.137 
03:40	50.7	50.7	50.7	54	34.7	0	0	---	0.00	30.138 
03:45	50.4	50.4	50.4	54	34.4	0	0	---	0.00	30.138 
03:50	50.1	50.1	50.1	53	33.6	0	0	---	0.00	30.138 
03:55	50.2	50.2	50.2	52	33.3	0	1	202	0.00	30.137 
04:00	50.5	50.5	50.5	51	33.1	0	1	202	0.00	30.136 
04:05	50.8	50.8	50.8	50	32.8	1	3	225	0.00	30.137 
04:10	51.1	51.1	51.1	50	33.1	0	2	248	0.00	30.137 
04:15	51.3	51.3	51.3	50	33.3	0	1	248	0.00	30.138 
04:20	51.0	51.0	51.0	50	33.0	0	0	---	0.00	30.137 
04:25	50.7	50.7	50.7	52	33.7	0	1	248	0.00	30.135 
04:30	50.5	50.5	50.5	52	33.5	0	2	248	0.00	30.137 
04:35	50.5	50.5	50.5	52	33.5	0	1	248	0.00	30.136 
04:40	50.5	50.5	50.5	52	33.5	0	2	248	0.00	30.135 
04:45	50.4	50.4	50.4	53	33.9	0	2	248	0.00	30.135 
04:50	50.4	50.4	50.4	53	33.9	0	1	248	0.00	30.137 
04:55	50.5	50.5	50.5	53	34.0	0	2	248	0.00	30.136 
05:00	50.7	50.7	50.7	54	34.7	0	2	248	0.00	30.136 
05:05	50.8	50.8	50.8	53	34.3	0	2	248	0.00	30.138 
05:10	51.0	51.0	51.0	53	34.5	0	2	248	0.00	30.136 
05:15	51.1	51.1	51.1	54	35.0	0	1	248	0.00	30.138 
05:20	51.1	51.1	51.1	53	34.6	0	1	248	0.00	30.138 
05:25	51.4	51.4	51.4	52	34.4	0	2	248	0.00	30.136 
05:30	51.9	51.9	51.9	52	34.8	1	2	248	0.00	30.134 
05:35	52.3	52.3	52.3	50	34.2	1	4	248	0.00	30.138 
05:40	52.8	52.8	52.8	50	34.7	1	2	248	0.00	30.134 
05:45	53.2	53.2	53.2	50	35.0	1	3	248	0.00	30.133 
05:50	53.3	53.3	53.3	49	34.6	1	3	248	0.00	30.135 
05:55	53.5	53.5	53.5	49	34.8	1	3	248	0.00	30.132 
06:00	53.5	53.5	53.5	48	34.3	0	2	248	0.00	30.133 
06:05	53.5	53.5	53.5	50	35.3	0	3	248	0.00	30.138 
06:10	53.6	53.6	53.6	49	34.9	0	2	248	0.00	30.139 
06:15	53.6	53.6	53.6	51	35.9	0	1	270	0.00	30.139 
06:20	53.5	53.5	53.5	51	35.8	0	1	270	0.00	30.140 
06:25	53.3	53.3	53.3	52	36.1	0	1	270	0.00	30.141 
06:30	53.3	53.3	53.3	52	36.1	0	2	270	0.00	30.144 
06:35	53.2	53.2	53.2	52	36.0	0	1	270	0.00	30.142 
06:40	53.2	53.2	53.2	52	36.0	0	2	270	0.00	30.141 
06:45	53.2	53.2	53.2	52	36.0	0	1	270	0.00	30.141 
06:50	53.2	53.2	53.2	52	36.0	0	1	270	0.00	30.141 
06:55	53.3	53.3	53.3	52	36.1	0	2	270	0.00	30.142 
07:00	53.3	53.3	53.3	52	36.1	0	1	270	0.00	30.144 
07:05	53.5	53.5	53.5	53	36.8	0	1	270	0.00	30.147 
07:10	53.5	53.5	53.5	54	37.3	0	1	270	0.00	30.146 
07:15	53.6	53.6	53.6	54	37.4	0	2	270	0.00	30.148 
07:20	53.8	53.8	53.8	54	37.5	0	1	270	0.00	30.147 
07:25	54.1	54.1	54.1	52	36.9	0	2	270	0.00	30.146 
07:30	54.2	54.2	54.2	52	37.0	0	2	270	0.00	30.145 
07:35	54.4	54.4	54.4	54	38.1	0	1	270	0.00	30.144 
07:40	54.5	54.5	54.5	53	37.7	0	1	270	0.00	30.145 
07:45	54.5	54.5	54.5	53	37.7	0	2	270	0.00	30.146 
07:50	54.5	54.5	54.5	54	38.2	0	1	270	0.00	30.148 
07:55	54.5	54.5	54.5	54	38.2	0	2	270	0.00	30.147 
08:00	54.7	54.7	54.7	53	37.9	1	2	270	0.00	30.145 
08:05	55.0	55.0	55.0	54	38.7	0	4	270	0.00	30.150 
08:10	55.1	55.1	55.1	54	38.8	0	2	270	0.00	30.150 
08:15	55.3	55.3	55.3	54	38.9	0	2	270	0.00	30.149 
08:20	55.4	55.4	55.4	52	38.1	1	4	248	0.00	30.149 
08:25	55.6	55.6	55.6	54	39.2	0	2	292	0.00	30.148 
08:30	55.7	55.7	55.7	53	38.8	0	2	292	0.00	30.149 
08:35	55.9	55.9	55.9	52	38.5	1	3	270	0.00	30.149 
08:40	56.0	56.0	56.0	53	39.1	0	1	270	0.00	30.152 
08:45	56.3	56.3	56.3	54	39.9	0	2	270	0.00	30.154 
08:50	56.3	56.3	56.3	52	38.9	1	2	270	0.00	30.153 
08:55	56.3	56.3	56.3	51	38.4	0	1	270	0.00	30.159 
09:00	56.3	56.3	56.3	52	38.9	0	2	270	0.00	30.159 
09:05	56.2	56.2	56.2	52	38.8	1	3	270	0.00	30.160 
09:10	56.2	56.2	56.2	52	38.8	0	2	248	0.00	30.163 
09:15	56.2	56.2	56.2	53	39.3	0	1	248	0.00	30.162 
09:20	56.3	56.3	56.3	54	39.9	0	1	248	0.00	30.164 
09:25	56.3	56.3	56.3	53	39.4	0	1	248	0.00	30.162 
09:30	56.6	56.6	56.6	54	40.1	0	1	248	0.00	30.157 
09:35	56.9	56.9	56.9	53	39.9	1	2	248	0.00	30.156 
09:40	57.2	57.2	57.2	53	40.2	0	2	248	0.00	30.158 
09:45	57.8	57.8	57.8	54	41.3	0	2	248	0.00	30.156 
09:50	58.3	58.3	58.3	50	39.7	1	3	248	0.00	30.155 
09:55	58.7	58.7	58.7	49	39.6	1	4	248	0.00	30.149 
10:00	59.3	59.3	59.3	49	40.1	1	4	270	0.00	30.149 
10:05	59.9	59.9	59.9	49	40.7	1	4	248	0.00	30.149 
10:10	60.5	60.5	60.5	50	41.8	1	3	248	0.00	30.149 
10:15	61.3	61.3	61.3	47	40.9	2	6	248	0.00	30.147 
10:20	61.6	61.6	61.6	46	40.6	2	5	248	0.00	30.146 
10:25	62.0	62.0	62.0	46	41.0	1	3	248	0.00	30.145 
10:30	62.1	62.1	62.1	44	39.9	1	3	248	0.00	30.145 
10:35	62.3	62.3	62.3	45	40.7	1	3	248	0.00	30.145 
10:40	62.3	62.3	62.3	44	40.1	1	3	248	0.00	30.145 
10:45	62.3	62.3	62.3	45	40.7	1	4	248	0.00	30.143 
10:50	62.6	62.6	62.6	44	40.4	1	3	248	0.00	30.140 
10:55	62.4	62.4	62.4	43	39.6	1	3	248	0.00	30.140 
11:00	62.1	62.1	62.1	43	39.3	1	3	225	0.00	30.139 
11:05	62.0	62.0	62.0	46	41.0	1	3	270	0.00	30.144 
11:10	62.0	62.0	62.0	45	40.4	1	2	270	0.00	30.145 
11:15	62.1	62.1	62.1	45	40.5	1	2	248	0.00	30.142 
11:20	62.4	62.4	62.4	46	41.3	0	2	248	0.00	30.137 
11:25	62.7	62.7	62.7	44	40.5	1	4	270	0.00	30.132 
11:30	63.2	63.2	63.2	45	41.5	1	4	248	0.00	30.130 
11:35	64.0	64.0	64.0	43	41.1	2	3	270	0.00	30.128 
11:40	65.0	65.0	65.0	42	41.3	2	5	270	0.00	30.126 
11:45	65.2	65.2	65.2	41	40.9	3	7	248	0.00	30.126 
11:50	65.3	65.3	65.3	41	41.0	3	5	248	0.00	30.126 
11:55	66.3	66.3	66.3	40	41.2	2	5	270	0.00	30.122 
12:00	67.1	67.1	67.1	40	42.0	2	6	248	0.00	30.115 
12:05	67.9	67.9	67.9	42	44.0	2	4	248	0.00	30.114 
12:10	68.8	68.8	68.8	43	45.4	2	5	270	0.00	30.110 
12:15	69.8	69.8	69.8	39	43.7	2	4	248	0.00	30.109 
12:20	69.8	69.8	69.8	39	43.7	2	6	225	0.00	30.103 
12:25	69.4	69.4	69.4	35	40.6	2	5	270	0.00	30.101 
12:30	69.4	69.4	69.4	35	40.6	2	4	248	0.00	30.100 
12:35	70.1	70.1	70.1	39	44.0	2	9	270	0.00	30.095 
12:40	70.8	70.8	70.8	33	40.3	3	7	292	0.00	30.094 
12:45	70.3	70.3	70.3	32	39.0	3	7	270	0.00	30.096 
12:50	70.3	70.3	70.3	31	38.2	3	7	270	0.00	30.096 
12:55	70.4	70.4	70.4	34	40.7	2	4	270	0.00	30.093 
13:00	70.6	70.6	70.6	30	37.6	3	6	270	0.00	30.089 
13:05	71.1	71.1	71.1	32	39.7	2	6	270	0.00	30.081 
13:10	72.0	72.0	72.0	27	36.2	3	5	270	0.00	30.082 
13:15	72.5	72.5	72.5	26	35.7	2	5	270	0.00	30.076 
13:20	72.8	72.8	72.8	25	34.9	3	6	270	0.00	30.076 
13:25	72.7	72.7	72.7	28	37.7	3	5	270	0.00	30.071 
13:30	72.7	72.7	72.7	28	37.7	3	6	270	0.00	30.072 
13:35	72.8	72.8	72.8	28	37.8	3	6	270	0.00	30.071 
13:40	72.7	72.7	72.7	27	36.8	4	7	270	0.00	30.071 
13:45	72.7	72.7	72.7	26	35.8	3	5	248	0.00	30.064 
13:50	73.0	73.0	73.0	27	37.0	2	5	248	0.00	30.062 
13:55	73.5	73.5	73.5	25	35.5	3	5	270	0.00	30.060 
14:00	73.5	73.5	73.5	27	37.5	2	6	270	0.00	30.060 
14:05	73.5	73.5	73.5	27	37.5	3	7	270	0.00	30.054 
14:10	73.0	73.0	73.0	27	37.0	3	7	270	0.00	30.058 
14:15	73.7	73.7	73.7	27	37.6	2	7	248	0.00	30.051 
14:20	73.7	73.7	73.7	28	38.6	3	6	270	0.00	30.046 
14:25	73.7	73.7	73.7	28	38.6	3	6	270	0.00	30.043 
14:30	74.0	74.0	74.0	26	36.9	3	7	270	0.00	30.041 
14:35	74.4	74.4	74.4	26	37.3	2	7	270	0.00	30.041 
14:40	74.6	74.6	74.6	26	37.4	2	5	248	0.00	30.035 
14:45	74.6	74.6	74.6	27	38.4	2	5	248	0.00	30.030 
14:50	74.9	74.9	74.9	28	39.6	2	4	270	0.00	30.034 
14:55	75.1	75.1	76.8	28	39.8	2	5	270	0.00	30.029 
15:00	75.4	75.4	76.6	24	36.1	2	6	248	0.00	30.029 
15:05	75.1	75.1	76.4	23	34.8	3	7	270	0.00	30.023 
15:10	75.1	75.1	76.5	24	35.8	3	6	270	0.00	30.020 
15:15	75.1	75.1	76.4	23	34.8	2	5	248	0.00	30.017 
15:20	75.4	75.4	76.7	25	37.1	2	4	270	0.00	30.011 
15:25	75.8	75.8	76.6	23	35.3	2	4	248	0.00	30.013 
15:30	75.6	75.6	76.7	25	37.3	2	5	292	0.00	30.009 
15:35	75.8	75.8	76.6	23	35.3	3	6	270	0.00	30.009 
15:40	75.4	75.4	76.6	24	36.1	2	5	248	0.00	30.008 
15:45	75.3	75.3	76.6	25	37.0	2	7	270	0.00	30.006 
15:50	75.8	75.8	76.9	26	38.5	2	6	270	0.00	30.006 
15:55	75.8	75.8	76.7	24	36.4	3	6	270	0.00	30.006 
16:00	75.8	75.8	76.8	25	37.5	2	6	270	0.00	30.004 
16:05	75.6	75.6	76.6	23	35.2	3	6	270	0.00	30.007 
16:10	75.3	75.3	76.4	23	34.9	3	5	292	0.00	30.006 
16:15	75.3	75.3	76.5	24	36.0	2	5	292	0.00	30.006 
16:20	75.6	75.6	76.7	25	37.3	2	4	270	0.00	30.007 
16:25	75.8	75.8	76.8	25	37.5	3	5	270	0.00	30.007 
16:30	75.8	75.8	76.7	24	36.4	2	5	270	0.00	30.005 
16:35	75.6	75.6	76.6	24	36.3	3	6	248	0.00	30.003 
16:40	75.6	75.6	76.6	24	36.3	3	7	270	0.00	30.004 
16:45	75.4	75.4	76.6	24	36.1	2	4	248	0.00	30.002 
16:50	75.4	75.4	76.7	25	37.1	2	6	292	0.00	30.000 
16:55	75.3	75.3	76.5	24	36.0	2	5	248	0.00	29.996 
17:00	75.3	75.3	76.6	25	37.0	3	6	270	0.00	29.996 
17:05	75.3	75.3	76.5	24	36.0	2	4	248	0.00	29.995 
17:10	75.3	75.3	76.5	24	36.0	3	5	270	0.00	29.996 
17:15	75.4	75.4	76.7	25	37.1	2	3	248	0.00	29.995 
17:20	75.6	75.6	76.6	24	36.3	2	5	270	0.00	29.992 
17:25	75.4	75.4	76.7	25	37.1	2	5	270	0.00	29.991 
17:30	75.3	75.3	76.6	25	37.0	2	9	248	0.00	29.990 
17:35	74.9	74.9	74.9	25	36.7	2	5	270	0.00	29.990 
17:40	74.7	74.7	74.7	25	36.5	3	7	270	0.00	29.989 
17:45	74.4	74.4	74.4	25	36.3	2	6	248	0.00	29.989 
17:50	74.4	74.4	74.4	24	35.2	2	6	270	0.00	29.988 
17:55	74.4	74.4	74.4	25	36.3	1	3	248	0.00	29.987 
18:00	74.2	74.2	74.2	25	36.1	1	4	248	0.00	29.988 
18:05	74.4	74.4	74.4	25	36.3	1	3	292	0.00	29.988 
18:10	74.4	74.4	74.4	24	35.2	2	4	248	0.00	29.989 
18:15	74.6	74.6	74.6	23	34.3	1	5	248	0.00	29.988 
18:20	74.6	74.6	74.6	24	35.4	2	4	270	0.00	29.987 
18:25	74.4	74.4	74.4	25	36.3	1	3	248	0.00	29.988 
18:30	74.2	74.2	74.2	25	36.1	1	4	248	0.00	29.986 
18:35	74.0	74.0	74.0	25	35.9	1	3	248	0.00	29.984 
18:40	73.9	73.9	73.9	25	35.9	1	5	248	0.00	29.985 
18:45	73.7	73.7	73.7	25	35.7	1	2	270	0.00	29.985 
18:50	73.7	73.7	73.7	25	35.7	1	2	270	0.00	29.988 
18:55	73.5	73.5	73.5	26	36.5	0	2	270	0.00	29.989 
19:00	73.3	73.3	73.3	25	35.3	1	2	270	0.00	29.989 
19:05	73.2	73.2	73.2	26	36.2	0	2	270	0.00	29.986 
19:10	72.8	72.8	72.8	26	35.9	0	1	270	0.00	29.986 
19:15	72.3	72.3	72.3	26	35.5	0	1	270	0.00	29.987 
19:20	72.0	72.0	72.0	27	36.2	0	1	270	0.00	29.989 
19:25	71.3	71.3	71.3	27	35.6	0	1	270	0.00	29.989 
19:30	70.8	70.8	70.8	27	35.2	0	1	270	0.00	29.989 
19:35	70.1	70.1	70.1	29	36.4	0	2	270	0.00	29.991 
19:40	69.6	69.6	69.6	29	35.9	0	1	270	0.00	29.990 
19:45	69.1	69.1	69.1	30	36.4	0	0	---	0.00	29.991 
19:50	68.6	68.6	68.6	32	37.6	0	0	---	0.00	29.990 
19:55	67.8	67.8	67.8	32	36.9	0	1	270	0.00	29.991 
20:00	67.3	67.3	67.3	34	38.0	0	0	---	0.00	29.991 
20:05	66.8	66.8	66.8	35	38.3	0	0	---	0.00	29.992 
20:10	66.1	66.1	66.1	35	37.6	0	0	---	0.00	29.993 
20:15	65.3	65.3	65.3	38	39.0	0	0	---	0.00	29.992 
20:20	64.5	64.5	64.5	39	39.0	0	0	---	0.00	29.995 
20:25	63.9	63.9	63.9	40	39.1	0	0	---	0.00	29.995 
20:30	63.2	63.2	63.2	42	39.7	0	0	---	0.00	29.997 
20:35	62.6	62.6	62.6	45	41.0	0	0	---	0.00	29.996 
20:40	62.1	62.1	62.1	46	41.1	0	0	---	0.00	29.995 
20:45	61.8	61.8	61.8	46	40.8	0	0	---	0.00	29.996 
20:50	61.6	61.6	61.6	45	40.0	0	0	---	0.00	29.996 
20:55	61.6	61.6	61.6	46	40.6	0	0	---	0.00	29.997 
21:00	61.8	61.8	61.8	46	40.8	0	0	---	0.00	29.997 
21:05	61.6	61.6	61.6	46	40.6	0	0	---	0.00	29.995 
21:10	61.6	61.6	61.6	45	40.0	0	0	---	0.00	29.996 
21:15	61.6	61.6	61.6	45	40.0	0	0	---	0.00	29.996 
21:20	61.5	61.5	61.5	43	38.8	0	1	270	0.00	29.996 
21:25	61.5	61.5	61.5	43	38.8	0	0	---	0.00	29.996 
21:30	61.3	61.3	61.3	43	38.6	0	0	---	0.00	29.996 
21:35	61.0	61.0	61.0	45	39.5	0	0	---	0.00	29.997 
21:40	60.5	60.5	60.5	46	39.6	0	0	---	0.00	29.998 
21:45	60.1	60.1	60.1	46	39.2	0	0	---	0.00	29.999 
21:50	59.9	59.9	59.9	47	39.6	0	0	---	0.00	30.000 
21:55	59.6	59.6	59.6	47	39.3	0	0	---	0.00	30.000 
22:00	59.2	59.2	59.2	49	40.0	0	0	---	0.00	30.000 
22:05	58.9	58.9	58.9	51	40.8	0	0	---	0.00	29.999 
22:10	58.7	58.7	58.7	50	40.1	0	0	---	0.00	29.998 
22:15	58.4	58.4	58.4	51	40.3	0	0	---	0.00	29.997 
22:20	58.1	58.1	58.1	50	39.6	0	0	---	0.00	29.997 
22:25	57.8	57.8	57.8	53	40.8	0	0	---	0.00	29.997 
22:30	57.6	57.6	57.6	53	40.6	0	0	---	0.00	29.997 
22:35	57.3	57.3	57.3	54	40.8	0	0	---	0.00	29.996 
22:40	57.2	57.2	57.2	55	41.2	0	1	270	0.00	29.998 
22:45	57.3	57.3	57.3	54	40.8	0	0	---	0.00	29.997 
22:50	57.5	57.5	57.5	54	41.0	0	1	270	0.00	29.995 
22:55	58.1	58.1	58.1	52	40.6	0	1	270	0.00	29.995 
23:00	58.9	58.9	58.9	50	40.3	0	2	270	0.00	29.994 
23:05	59.6	59.6	59.6	48	39.9	0	2	270	0.00	29.989 
23:10	60.2	60.2	60.2	47	39.9	0	2	270	0.00	29.989 
23:15	60.9	60.9	60.9	46	40.0	0	2	270	0.00	29.985 
23:20	61.5	61.5	61.5	44	39.4	1	3	248	0.00	29.985 
23:25	62.0	62.0	62.0	44	39.8	1	3	248	0.00	29.981 
23:30	62.4	62.4	62.4	43	39.6	1	4	248	0.00	29.981 
23:35	62.7	62.7	62.7	42	39.3	1	3	248	0.00	29.979 
23:40	63.2	63.2	63.2	42	39.7	1	4	248	0.00	29.976 
23:45	63.4	63.4	63.4	41	39.3	1	3	270	0.00	29.975 
23:50	63.7	63.7	63.7	40	38.9	2	4	248	0.00	29.975 
23:55	63.9	63.9	63.9	40	39.1	1	4	248	0.00	29.975 

CoCoRaHS
IN-AL-39
A2 Web Hosting
Creative Commons License
GoDaddy
Look for:

loaded 2017-12-12 07:05:45 • last modified 2010-11-18 10:43:29
Privacy PolicyDisclaimer
• wx.awcolley.com is powered by PmWiki v.2002016 •
• all content (unless otherwise noted) © 2017 A W Colley